Time;durP1;ratioP1;P1;durP2;ratioP2;P2;SDS_P1;SDS_P2;PMS_P1;PMS_P2;Temp;Humidity;BMP_temperature;BMP_pressure;BME280_temperature;BME280_humidity;BME280_pressure;Samples;Min_cycle;Max_cycle;Signal;HPM_P1;HPM_P2
2022/03/24 00:00:08;;;;;;;16.57;9.20;;;4.80;63.20;;;;;;5012685;28;20192;-71
2022/03/24 00:02:34;;;;;;;12.37;8.10;;;4.80;63.10;;;;;;5010192;28;20217;-70
2022/03/24 00:05:00;;;;;;;14.03;8.47;;;4.70;63.40;;;;;;5007091;28;20674;-72
2022/03/24 00:07:26;;;;;;;13.80;8.73;;;4.80;63.10;;;;;;5014875;28;20207;-70
2022/03/24 00:09:52;;;;;;;24.07;9.80;;;4.80;63.20;;;;;;5012079;28;20186;-71
2022/03/24 00:12:18;;;;;;;14.27;9.50;;;4.80;63.40;;;;;;5019114;28;20578;-72
2022/03/24 00:14:44;;;;;;;16.67;9.03;;;4.80;63.50;;;;;;5013841;28;20185;-75
2022/03/24 00:17:10;;;;;;;19.23;10.13;;;4.80;63.60;;;;;;5011225;28;20216;-70
2022/03/24 00:19:36;;;;;;;15.63;9.00;;;4.80;63.50;;;;;;5017131;28;20664;-71
2022/03/24 00:22:01;;;;;;;15.83;8.77;;;4.70;63.60;;;;;;5013164;28;20295;-71
2022/03/24 00:24:27;;;;;;;16.17;8.93;;;4.70;63.90;;;;;;5014532;28;20190;-71
2022/03/24 00:26:53;;;;;;;20.00;9.67;;;4.70;63.80;;;;;;5018758;28;20195;-72
2022/03/24 00:29:19;;;;;;;20.60;9.73;;;4.70;64.00;;;;;;5013165;28;20670;-71
2022/03/24 00:31:46;;;;;;;22.90;10.50;;;4.70;64.20;;;;;;5015489;28;20177;-72
2022/03/24 00:34:12;;;;;;;19.50;10.77;;;4.60;64.10;;;;;;5011846;28;20227;-71
2022/03/24 00:36:38;;;;;;;22.33;10.30;;;4.60;64.20;;;;;;5015100;28;20226;-71
2022/03/24 00:39:04;;;;;;;14.23;8.57;;;4.60;64.10;;;;;;5013584;28;20612;-70
2022/03/24 00:41:30;;;;;;;15.20;9.33;;;4.50;64.20;;;;;;5011746;28;20227;-71
2022/03/24 00:43:56;;;;;;;24.00;9.63;;;4.50;64.20;;;;;;5010264;28;20240;-71
2022/03/24 00:46:22;;;;;;;20.70;10.30;;;4.50;64.10;;;;;;5011722;28;20934;-71
2022/03/24 00:48:52;;;;;;;19.53;10.10;;;4.50;64.30;;;;;;5011304;28;20192;-71
2022/03/24 00:51:19;;;;;;;15.30;8.83;;;4.40;64.60;;;;;;5009371;28;20177;-71
2022/03/24 00:53:49;;;;;;;18.83;9.33;;;4.30;64.70;;;;;;5009982;28;20653;-70
2022/03/24 00:56:17;;;;;;;16.90;9.20;;;4.30;64.80;;;;;;5029128;28;20200;-71
2022/03/24 00:58:43;;;;;;;15.37;9.37;;;4.20;65.00;;;;;;5011915;28;20247;-71
2022/03/24 01:01:12;;;;;;;16.50;9.53;;;4.20;64.70;;;;;;5014202;28;20189;-70
2022/03/24 01:03:41;;;;;;;17.20;8.20;;;4.10;65.10;;;;;;5006941;28;20217;-70
2022/03/24 01:06:08;;;;;;;15.40;9.00;;;4.10;64.80;;;;;;5011994;28;20283;-71
2022/03/24 01:08:35;;;;;;;18.60;9.43;;;4.10;64.70;;;;;;5011819;28;20180;-70
2022/03/24 01:11:01;;;;;;;12.40;7.23;;;4.10;64.70;;;;;;5006443;28;20192;-71
2022/03/24 01:13:28;;;;;;;14.97;7.27;;;4.10;64.70;;;;;;5010009;28;20188;-70
2022/03/24 01:15:54;;;;;;;16.13;8.63;;;4.00;64.80;;;;;;5005974;28;20196;-70
2022/03/24 01:18:20;;;;;;;23.53;8.20;;;4.00;65.00;;;;;;5012433;28;20192;-70
2022/03/24 01:20:46;;;;;;;18.47;9.57;;;4.00;65.00;;;;;;5011659;28;20662;-71
2022/03/24 01:23:12;;;;;;;22.20;10.20;;;4.00;65.10;;;;;;5007610;28;20250;-69
2022/03/24 01:25:41;;;;;;;26.97;11.87;;;4.00;65.10;;;;;;5010014;28;20181;-70
2022/03/24 01:28:09;;;;;;;26.20;10.13;;;3.90;65.40;;;;;;5012520;28;20180;-71
2022/03/24 01:30:38;;;;;;;19.33;10.03;;;3.80;65.40;;;;;;5009523;28;20177;-70
2022/03/24 01:33:04;;;;;;;24.47;10.67;;;3.80;65.70;;;;;;5015374;28;20188;-72
2022/03/24 01:35:29;;;;;;;24.77;11.50;;;3.70;65.90;;;;;;5009784;28;20621;-70
2022/03/24 01:37:55;;;;;;;32.97;12.10;;;3.60;65.80;;;;;;5015891;28;20622;-71
2022/03/24 01:40:21;;;;;;;21.13;10.87;;;3.60;65.80;;;;;;5015268;28;20193;-71
2022/03/24 01:42:47;;;;;;;28.33;10.77;;;3.60;65.90;;;;;;5013617;28;20220;-70
2022/03/24 01:45:14;;;;;;;24.97;11.23;;;3.50;66.20;;;;;;5015088;28;20217;-70
2022/03/24 01:47:40;;;;;;;21.47;10.73;;;3.50;66.60;;;;;;5017006;28;20180;-70
2022/03/24 01:50:08;;;;;;;25.77;11.47;;;3.40;66.60;;;;;;5013035;28;20207;-71
2022/03/24 01:52:34;;;;;;;21.50;10.60;;;3.40;66.50;;;;;;5010521;28;20225;-71
2022/03/24 01:55:01;;;;;;;19.60;10.00;;;3.30;66.80;;;;;;5017344;28;20271;-71
2022/03/24 01:57:29;;;;;;;17.53;9.73;;;3.30;66.70;;;;;;5015665;28;20180;-71
2022/03/24 01:59:55;;;;;;;24.47;10.20;;;3.30;66.70;;;;;;5018944;28;20712;-71
2022/03/24 02:02:21;;;;;;;22.50;9.10;;;3.30;66.60;;;;;;5012675;28;20277;-71
2022/03/24 02:04:47;;;;;;;16.53;8.90;;;3.30;66.80;;;;;;5011940;28;20185;-71
2022/03/24 02:07:13;;;;;;;19.83;9.53;;;3.30;67.10;;;;;;5016257;28;20206;-71
2022/03/24 02:09:39;;;;;;;25.13;8.70;;;3.20;66.90;;;;;;5012222;28;20760;-71
2022/03/24 02:12:07;;;;;;;15.87;7.57;;;3.20;67.20;;;;;;5011999;28;20192;-71
2022/03/24 02:14:34;;;;;;;20.53;8.03;;;3.20;67.40;;;;;;5007700;28;20240;-70
2022/03/24 02:17:01;;;;;;;15.53;8.33;;;3.10;67.40;;;;;;5011317;28;20192;-70
2022/03/24 02:19:28;;;;;;;18.53;8.13;;;3.10;67.60;;;;;;5011977;28;20223;-70
2022/03/24 02:21:56;;;;;;;19.60;8.00;;;3.00;67.60;;;;;;5010310;28;20276;-70
2022/03/24 02:24:23;;;;;;;8.73;6.80;;;2.90;67.50;;;;;;5015063;28;20267;-70
2022/03/24 02:26:51;;;;;;;17.10;8.47;;;2.90;67.60;;;;;;5013524;28;20183;-70
2022/03/24 02:29:18;;;;;;;14.93;7.20;;;2.90;67.90;;;;;;5019303;28;20188;-71
2022/03/24 02:31:49;;;;;;;11.87;7.00;;;2.90;67.80;;;;;;5017438;28;20191;-69
2022/03/24 02:34:40;;;;;;;11.93;6.37;;;2.90;67.80;;;;;;5011106;28;20196;-72
2022/03/24 02:37:08;;;;;;;10.40;7.20;;;2.90;67.90;;;;;;5041463;28;20196;-71
2022/03/24 02:39:36;;;;;;;12.60;6.97;;;2.90;68.10;;;;;;5015015;28;20199;-72
2022/03/24 02:42:03;;;;;;;12.47;6.30;;;2.90;68.00;;;;;;5009570;28;20223;-71
2022/03/24 02:44:30;;;;;;;7.20;6.03;;;2.90;68.10;;;;;;5019765;28;20183;-70
2022/03/24 02:46:58;;;;;;;11.13;6.47;;;2.90;68.10;;;;;;5011543;28;20203;-71
2022/03/24 02:49:26;;;;;;;18.00;5.60;;;2.80;68.20;;;;;;5015185;28;20196;-70
2022/03/24 02:51:54;;;;;;;10.53;5.93;;;2.80;68.10;;;;;;5005436;28;20185;-72
2022/03/24 02:54:21;;;;;;;11.10;5.90;;;2.80;68.40;;;;;;5010997;28;20184;-70
2022/03/24 02:56:48;;;;;;;11.80;6.37;;;2.80;68.40;;;;;;5013274;28;20180;-71
2022/03/24 02:59:14;;;;;;;16.67;7.27;;;2.80;68.60;;;;;;5019839;28;20192;-71
2022/03/24 03:01:42;;;;;;;12.23;7.03;;;2.80;68.50;;;;;;5012684;28;20605;-71
2022/03/24 03:04:09;;;;;;;13.97;6.77;;;2.80;68.50;;;;;;5012381;28;20262;-72
2022/03/24 03:06:35;;;;;;;13.03;6.63;;;2.80;68.80;;;;;;5011597;28;20189;-71
2022/03/24 03:09:02;;;;;;;12.40;6.57;;;2.80;68.90;;;;;;5011866;28;20196;-71
2022/03/24 03:11:31;;;;;;;13.70;6.50;;;2.80;69.10;;;;;;5011232;28;20192;-70
2022/03/24 03:13:58;;;;;;;14.63;7.33;;;2.70;69.20;;;;;;5016227;28;20221;-71
2022/03/24 03:16:24;;;;;;;16.13;6.20;;;2.70;69.30;;;;;;5010940;28;20208;-71
2022/03/24 03:18:50;;;;;;;10.07;6.30;;;2.70;69.40;;;;;;5013625;28;20184;-70
2022/03/24 03:21:16;;;;;;;13.67;7.20;;;2.70;69.60;;;;;;5008648;28;20177;-70
2022/03/24 03:23:43;;;;;;;14.60;7.93;;;2.60;69.60;;;;;;5018131;28;20219;-70
2022/03/24 03:26:11;;;;;;;14.37;8.03;;;2.60;69.90;;;;;;5015171;28;20180;-70
2022/03/24 03:28:37;;;;;;;13.00;7.17;;;2.60;70.00;;;;;;5012356;28;20620;-71
2022/03/24 03:31:05;;;;;;;14.87;7.10;;;2.60;69.80;;;;;;5008553;28;20181;-71
2022/03/24 03:33:31;;;;;;;13.73;7.67;;;2.60;70.00;;;;;;5012210;28;20184;-69
2022/03/24 03:35:57;;;;;;;11.97;7.00;;;2.60;70.20;;;;;;5010950;28;20795;-70
2022/03/24 03:38:24;;;;;;;15.40;7.37;;;2.60;70.30;;;;;;5017568;28;20213;-71
2022/03/24 03:40:52;;;;;;;14.90;8.17;;;2.50;70.30;;;;;;5012330;28;20184;-72
2022/03/24 03:43:18;;;;;;;13.87;8.27;;;2.50;70.40;;;;;;5013796;28;20756;-71
2022/03/24 03:45:44;;;;;;;14.63;6.80;;;2.50;70.50;;;;;;5013497;28;20272;-72
2022/03/24 03:48:11;;;;;;;11.30;8.33;;;2.50;70.70;;;;;;5012165;28;20884;-70
2022/03/24 03:50:40;;;;;;;19.87;8.23;;;2.50;70.80;;;;;;5013834;28;20189;-71
2022/03/24 03:53:08;;;;;;;18.67;7.37;;;2.40;70.90;;;;;;5016710;28;20579;-71
2022/03/24 03:55:34;;;;;;;13.77;7.00;;;2.40;70.90;;;;;;5013479;28;20180;-71
2022/03/24 03:58:00;;;;;;;11.00;6.33;;;2.40;70.70;;;;;;5006268;28;20189;-70
2022/03/24 04:03:10;;;;;;;11.50;6.70;;;2.30;70.90;;;;;;5016891;28;20226;-71
2022/03/24 04:05:36;;;;;;;12.67;7.80;;;2.30;71.10;;;;;;5010900;28;20569;-70
2022/03/24 04:08:02;;;;;;;8.90;6.87;;;2.30;71.20;;;;;;5009378;28;20177;-70
2022/03/24 04:10:28;;;;;;;22.67;6.37;;;2.30;71.10;;;;;;5011947;28;20268;-71
2022/03/24 04:12:55;;;;;;;14.10;7.80;;;2.30;71.30;;;;;;5010520;28;20271;-71
2022/03/24 04:15:24;;;;;;;13.00;7.17;;;2.20;71.50;;;;;;5011574;28;20180;-71
2022/03/24 04:17:53;;;;;;;10.97;6.53;;;2.20;71.60;;;;;;5008696;28;21007;-71
2022/03/24 04:20:23;;;;;;;11.07;7.73;;;2.10;71.50;;;;;;5009490;28;20193;-71
2022/03/24 04:22:52;;;;;;;18.63;7.83;;;2.10;71.60;;;;;;5008681;28;20265;-71
2022/03/24 04:25:22;;;;;;;12.67;7.50;;;2.10;71.80;;;;;;5008518;28;20191;-70
2022/03/24 04:27:49;;;;;;;11.77;7.27;;;2.10;71.80;;;;;;5011078;28;20193;-70
2022/03/24 04:30:16;;;;;;;16.47;6.83;;;2.10;71.70;;;;;;5011349;28;20184;-71
2022/03/24 04:32:43;;;;;;;11.83;7.53;;;2.10;71.90;;;;;;5008981;28;20733;-71
2022/03/24 04:35:09;;;;;;;10.37;6.37;;;2.10;71.80;;;;;;5009495;28;21001;-71
2022/03/24 04:37:35;;;;;;;15.57;8.17;;;2.10;72.00;;;;;;5008513;28;20856;-72
2022/03/24 04:40:02;;;;;;;13.23;7.50;;;2.10;72.00;;;;;;5008064;28;20589;-72
2022/03/24 04:42:28;;;;;;;11.97;7.13;;;2.10;72.00;;;;;;5010555;28;20226;-70
2022/03/24 04:44:53;;;;;;;12.03;6.83;;;2.20;71.80;;;;;;5010943;28;20532;-70
2022/03/24 04:47:19;;;;;;;14.97;7.40;;;2.20;71.90;;;;;;5006909;28;20212;-70
2022/03/24 04:49:45;;;;;;;9.93;6.63;;;2.20;72.10;;;;;;5013844;28;20187;-71
2022/03/24 04:52:12;;;;;;;16.30;6.40;;;2.20;72.10;;;;;;5013224;28;20600;-70
2022/03/24 04:54:38;;;;;;;10.80;6.37;;;2.20;71.90;;;;;;5012749;28;20240;-71
2022/03/24 04:57:04;;;;;;;17.20;8.53;;;2.10;72.10;;;;;;5015632;28;20191;-70
2022/03/24 04:59:29;;;;;;;13.27;7.07;;;2.20;72.00;;;;;;5014078;28;20177;-70
2022/03/24 05:01:56;;;;;;;12.87;7.00;;;2.10;72.00;;;;;;5006964;28;20319;-72
2022/03/24 05:04:23;;;;;;;18.33;6.83;;;2.20;72.00;;;;;;5007147;28;20179;-70
2022/03/24 05:06:51;;;;;;;11.47;6.43;;;2.10;72.00;;;;;;5012435;28;20579;-71
2022/03/24 05:09:16;;;;;;;17.43;7.30;;;2.20;72.20;;;;;;5018110;28;21183;-71
2022/03/24 05:11:42;;;;;;;21.47;7.30;;;2.20;72.30;;;;;;5009666;28;20189;-71
2022/03/24 05:14:08;;;;;;;15.17;8.30;;;2.20;72.50;;;;;;5010641;28;20230;-71
2022/03/24 05:16:34;;;;;;;12.93;7.77;;;2.20;72.50;;;;;;5006507;28;20207;-71
2022/03/24 05:19:00;;;;;;;15.20;8.03;;;2.20;72.30;;;;;;5011078;28;20287;-71
2022/03/24 05:21:27;;;;;;;17.33;8.40;;;2.20;72.30;;;;;;5005999;28;20573;-71
2022/03/24 05:23:52;;;;;;;15.50;8.47;;;2.20;72.30;;;;;;5010164;28;20204;-71
2022/03/24 05:26:20;;;;;;;17.27;7.73;;;2.20;72.30;;;;;;5006431;28;20795;-71
2022/03/24 05:28:47;;;;;;;12.73;7.40;;;2.30;72.60;;;;;;5005950;28;20177;-73
2022/03/24 05:31:13;;;;;;;15.07;8.20;;;2.30;72.20;;;;;;5003282;28;20203;-73
2022/03/24 05:33:39;;;;;;;16.50;8.67;;;2.40;72.20;;;;;;5007438;28;20215;-73
2022/03/24 05:36:05;;;;;;;16.90;8.97;;;2.40;72.10;;;;;;5008702;28;20295;-73
2022/03/24 05:38:31;;;;;;;14.83;8.40;;;2.40;72.10;;;;;;5007810;28;20177;-73
2022/03/24 05:40:57;;;;;;;21.80;9.43;;;2.50;72.20;;;;;;5004867;28;20234;-74
2022/03/24 05:43:23;;;;;;;14.87;8.63;;;2.50;71.90;;;;;;5001798;28;20271;-74
2022/03/24 05:45:49;;;;;;;18.60;9.30;;;2.60;72.00;;;;;;5010003;28;20984;-74
2022/03/24 05:48:16;;;;;;;17.67;8.50;;;2.60;71.90;;;;;;5009100;28;20232;-77
2022/03/24 05:50:43;;;;;;;14.07;7.77;;;2.70;72.10;;;;;;5006757;28;20192;-76
2022/03/24 05:53:09;;;;;;;13.67;7.53;;;2.70;72.50;;;;;;5004593;28;20181;-73
2022/03/24 05:55:37;;;;;;;18.43;9.27;;;2.80;72.70;;;;;;5003941;28;20247;-76
2022/03/24 05:58:04;;;;;;;13.33;8.57;;;2.80;72.70;;;;;;5007192;28;20183;-76
2022/03/24 06:00:30;;;;;;;22.67;9.90;;;2.90;72.70;;;;;;5006730;28;20247;-78
2022/03/24 06:02:56;;;;;;;25.00;9.60;;;2.90;73.40;;;;;;5006121;28;20205;-76
2022/03/24 06:05:23;;;;;;;15.83;9.13;;;2.90;72.90;;;;;;5002747;28;20203;-76
2022/03/24 06:07:49;;;;;;;31.60;9.57;;;3.00;72.30;;;;;;5006215;28;20188;-76
2022/03/24 06:10:15;;;;;;;20.80;10.20;;;3.00;72.10;;;;;;5010883;28;20267;-76
2022/03/24 06:12:41;;;;;;;15.33;8.53;;;3.10;71.90;;;;;;5003010;28;20271;-78
2022/03/24 06:15:07;;;;;;;18.73;8.87;;;3.20;71.90;;;;;;5006207;28;20239;-76
2022/03/24 06:17:34;;;;;;;15.87;8.13;;;3.30;71.80;;;;;;5003952;28;20195;-76
2022/03/24 06:20:04;;;;;;;10.80;7.67;;;3.40;71.50;;;;;;5009905;28;20181;-75
2022/03/24 06:22:31;;;;;;;21.83;9.27;;;3.50;71.20;;;;;;5008556;28;20216;-79
2022/03/24 06:24:57;;;;;;;13.77;8.97;;;3.50;71.20;;;;;;5008806;28;20579;-77
2022/03/24 06:27:23;;;;;;;16.97;9.03;;;3.60;70.80;;;;;;5010506;28;20181;-74
2022/03/24 06:29:48;;;;;;;13.53;8.67;;;3.70;70.60;;;;;;5009648;28;20290;-76
2022/03/24 06:32:15;;;;;;;21.37;9.40;;;3.80;70.50;;;;;;5006806;28;20272;-75
2022/03/24 06:34:41;;;;;;;19.43;10.07;;;3.90;70.50;;;;;;5012255;28;20185;-73
2022/03/24 06:37:07;;;;;;;15.00;10.00;;;3.90;70.30;;;;;;5017491;28;20295;-73
2022/03/24 06:39:33;;;;;;;18.63;10.27;;;4.00;70.20;;;;;;5018903;28;20296;-75
2022/03/24 06:41:58;;;;;;;18.40;9.37;;;4.10;70.40;;;;;;5019533;28;20185;-76
2022/03/24 06:44:24;;;;;;;16.53;9.03;;;4.10;70.00;;;;;;5016003;28;20255;-75
2022/03/24 06:46:50;;;;;;;16.63;10.00;;;4.20;69.60;;;;;;5014518;28;20181;-75
2022/03/24 06:49:15;;;;;;;13.07;8.77;;;4.30;69.40;;;;;;5011868;28;20184;-75
2022/03/24 06:51:41;;;;;;;15.40;9.73;;;4.40;69.30;;;;;;5016001;28;20181;-75
2022/03/24 06:54:07;;;;;;;15.97;8.93;;;4.50;69.10;;;;;;5013896;28;20193;-74
2022/03/24 06:56:34;;;;;;;16.33;10.10;;;4.60;68.90;;;;;;5004980;28;20211;-75
2022/03/24 06:59:00;;;;;;;19.30;10.57;;;4.70;69.00;;;;;;5009158;28;20257;-75
2022/03/24 07:01:25;;;;;;;15.27;9.30;;;4.80;68.80;;;;;;5007704;28;20177;-75
2022/03/24 07:03:51;;;;;;;18.53;9.10;;;4.90;68.50;;;;;;5015484;28;20391;-76
2022/03/24 07:06:17;;;;;;;15.50;9.07;;;5.00;68.30;;;;;;5013522;28;20203;-75
2022/03/24 07:08:43;;;;;;;19.97;10.43;;;5.10;68.10;;;;;;5012950;28;20199;-76
2022/03/24 07:11:09;;;;;;;24.93;11.53;;;5.20;67.70;;;;;;5009140;28;20188;-76
2022/03/24 07:13:35;;;;;;;19.40;10.83;;;5.30;67.80;;;;;;5013334;28;20192;-76
2022/03/24 07:16:01;;;;;;;19.67;10.80;;;5.40;67.60;;;;;;5005396;28;20188;-76
2022/03/24 07:18:27;;;;;;;20.60;10.63;;;5.50;67.40;;;;;;5012569;28;20208;-75
2022/03/24 07:20:53;;;;;;;21.97;10.90;;;5.60;67.20;;;;;;5011679;28;20510;-76
2022/03/24 07:23:20;;;;;;;18.70;10.17;;;5.70;67.00;;;;;;5009736;28;20216;-76
2022/03/24 07:25:45;;;;;;;21.00;11.43;;;5.80;66.80;;;;;;5014456;28;20188;-76
2022/03/24 07:28:11;;;;;;;18.10;11.67;;;5.90;66.60;;;;;;5007506;28;20189;-76
2022/03/24 07:30:37;;;;;;;20.43;11.67;;;6.10;66.70;;;;;;5007391;28;20196;-76
2022/03/24 07:33:04;;;;;;;27.77;12.37;;;6.20;66.40;;;;;;5012987;28;20231;-77
2022/03/24 07:35:31;;;;;;;21.37;12.00;;;6.30;65.80;;;;;;5008345;28;20184;-77
2022/03/24 07:37:57;;;;;;;34.60;12.40;;;6.40;65.60;;;;;;5017459;28;20276;-77
2022/03/24 07:40:24;;;;;;;19.70;12.00;;;6.50;65.50;;;;;;5012946;28;20711;-75
2022/03/24 07:42:53;;;;;;;26.03;12.87;;;6.70;65.40;;;;;;5011972;28;20271;-76
2022/03/24 07:45:22;;;;;;;23.03;12.27;;;6.80;64.90;;;;;;5005579;28;20185;-75
2022/03/24 07:48:17;;;;;;;25.47;12.40;;;6.90;64.60;;;;;;5007601;28;20179;-74
2022/03/24 07:50:45;;;;;;;27.30;11.77;;;7.10;64.50;;;;;;5007721;28;20276;-76
2022/03/24 07:53:14;;;;;;;19.60;11.37;;;7.20;64.60;;;;;;5010072;28;20576;-79
2022/03/24 07:55:41;;;;;;;18.87;10.83;;;7.40;64.80;;;;;;5003248;28;20185;-74
2022/03/24 07:58:11;;;;;;;19.07;10.37;;;7.60;63.70;;;;;;5003536;28;20657;-75
2022/03/24 08:00:37;;;;;;;15.97;11.10;;;7.80;63.80;;;;;;5008023;28;20192;-75
2022/03/24 08:03:05;;;;;;;25.90;12.30;;;7.90;64.00;;;;;;5010354;28;20213;-74
2022/03/24 08:05:32;;;;;;;21.83;11.07;;;8.10;63.40;;;;;;5007239;28;21372;-76
2022/03/24 08:07:57;;;;;;;22.30;11.80;;;8.30;63.30;;;;;;5005983;28;20196;-75
2022/03/24 08:10:23;;;;;;;21.93;12.33;;;8.50;62.60;;;;;;5005904;28;20189;-73
2022/03/24 08:12:49;;;;;;;20.83;11.47;;;8.70;62.70;;;;;;5008683;28;20192;-74
2022/03/24 08:15:15;;;;;;;16.30;8.97;;;8.90;62.30;;;;;;5004308;28;20271;-76
2022/03/24 08:17:41;;;;;;;21.73;10.40;;;9.20;62.30;;;;;;5009892;28;20196;-75
2022/03/24 08:20:07;;;;;;;18.40;10.30;;;9.50;61.20;;;;;;5010115;28;20185;-76
2022/03/24 08:22:33;;;;;;;15.13;9.70;;;9.80;60.70;;;;;;5004957;28;20204;-76
2022/03/24 08:24:59;;;;;;;21.80;10.63;;;10.20;60.10;;;;;;5003343;28;20184;-76
2022/03/24 08:27:25;;;;;;;15.33;10.13;;;10.70;59.80;;;;;;5006527;28;20327;-77
2022/03/24 08:29:51;;;;;;;17.93;9.83;;;11.40;58.90;;;;;;5013465;28;20185;-76
2022/03/24 08:32:17;;;;;;;18.57;9.47;;;12.20;57.60;;;;;;5005486;28;20211;-76
2022/03/24 08:34:43;;;;;;;11.97;9.33;;;13.10;57.30;;;;;;5013165;28;20231;-76
2022/03/24 08:37:09;;;;;;;17.02;9.48;;;13.90;55.00;;;;;;5012077;28;20714;-76
2022/03/24 08:39:34;;;;;;;11.73;7.78;;;14.90;54.20;;;;;;5013669;28;20181;-76
2022/03/24 08:42:00;;;;;;;12.48;7.28;;;15.90;51.70;;;;;;5017117;28;20176;-77
2022/03/24 08:44:28;;;;;;;12.55;7.20;;;16.80;51.70;;;;;;5010840;28;20263;-76
2022/03/24 08:46:54;;;;;;;11.02;6.95;;;17.80;49.90;;;;;;5015521;28;20885;-77
2022/03/24 08:49:20;;;;;;;10.60;6.72;;;18.90;49.70;;;;;;5009275;28;20184;-76
2022/03/24 08:51:46;;;;;;;12.10;6.50;;;19.80;48.30;;;;;;5032368;28;20771;-76
2022/03/24 08:54:12;;;;;;;7.45;6.50;;;20.70;46.40;;;;;;5011666;28;20764;-75
2022/03/24 08:56:38;;;;;;;9.20;5.97;;;21.10;44.00;;;;;;5012758;28;20184;-75
2022/03/24 08:59:06;;;;;;;10.52;5.47;;;21.40;44.30;;;;;;5012138;28;20183;-75
2022/03/24 09:01:34;;;;;;;14.98;5.95;;;21.80;44.30;;;;;;5012740;28;20581;-75
2022/03/24 09:04:00;;;;;;;5.85;5.30;;;22.30;43.50;;;;;;5011296;28;20216;-76
2022/03/24 09:06:27;;;;;;;6.85;5.00;;;22.90;43.90;;;;;;5009596;28;20585;-76
2022/03/24 09:08:53;;;;;;;6.53;4.80;;;23.60;43.60;;;;;;5027680;28;20180;-76
2022/03/24 09:11:18;;;;;;;7.45;5.43;;;24.30;41.00;;;;;;5014727;28;20187;-75
2022/03/24 09:13:44;;;;;;;6.10;5.13;;;24.60;41.20;;;;;;5007989;28;20508;-75
2022/03/24 09:16:11;;;;;;;8.55;5.47;;;25.00;41.70;;;;;;5016622;28;20272;-75
2022/03/24 09:18:37;;;;;;;6.30;4.40;;;25.40;41.10;;;;;;5012731;28;20587;-76
2022/03/24 09:21:03;;;;;;;7.13;5.32;;;25.80;39.10;;;;;;5014416;28;20185;-75
2022/03/24 09:23:29;;;;;;;5.57;5.15;;;25.60;37.20;;;;;;5009304;28;20793;-75
2022/03/24 09:25:56;;;;;;;6.65;4.57;;;24.90;37.40;;;;;;5031079;28;20314;-75
2022/03/24 09:28:24;;;;;;;10.70;4.75;;;24.30;37.60;;;;;;5009818;28;20181;-75
2022/03/24 09:30:50;;;;;;;7.07;4.72;;;23.70;37.60;;;;;;5015107;28;20184;-74
2022/03/24 09:33:18;;;;;;;7.63;4.80;;;23.30;38.30;;;;;;5009087;28;20188;-74
2022/03/24 09:35:43;;;;;;;8.70;5.13;;;23.40;39.10;;;;;;5015122;28;20260;-74
2022/03/24 09:38:09;;;;;;;8.98;5.97;;;23.80;38.20;;;;;;5015779;28;21771;-74
2022/03/24 09:40:36;;;;;;;7.88;6.05;;;24.10;37.80;;;;;;5010666;28;20249;-75
2022/03/24 09:43:02;;;;;;;8.10;4.82;;;24.10;37.90;;;;;;5017498;28;20207;-75
2022/03/24 09:45:28;;;;;;;9.95;5.22;;;24.50;38.80;;;;;;5029325;28;20263;-76
2022/03/24 09:47:54;;;;;;;5.75;5.03;;;25.20;38.30;;;;;;5017186;28;20528;-76
2022/03/24 09:50:24;;;;;;;5.43;4.60;;;25.80;37.60;;;;;;5014395;28;20287;-75
2022/03/24 09:52:52;;;;;;;4.28;4.07;;;26.00;35.90;;;;;;5013310;28;20235;-76
2022/03/24 09:55:19;;;;;;;7.57;4.68;;;26.10;36.30;;;;;;5028390;28;20299;-76
2022/03/24 09:57:47;;;;;;;8.05;5.00;;;26.30;36.10;;;;;;5017430;28;20189;-76
2022/03/24 10:00:17;;;;;;;6.75;4.93;;;26.40;35.50;;;;;;5018733;28;21401;-75
2022/03/24 10:02:43;;;;;;;4.68;3.92;;;26.40;35.80;;;;;;5017268;28;20579;-75
2022/03/24 10:05:17;;;;;;;4.78;4.38;;;26.90;36.10;;;;;;5030074;28;20200;-75
2022/03/24 10:07:46;;;;;;;4.50;4.03;;;27.40;35.90;;;;;;5015486;28;20180;-75
2022/03/24 10:10:25;;;;;;;10.68;4.53;;;28.10;36.00;;;;;;5018016;28;20729;-77
2022/03/24 10:12:51;;;;;;;6.70;4.55;;;28.60;34.90;;;;;;5014822;28;20224;-75
2022/03/24 10:15:19;;;;;;;5.75;4.32;;;28.90;34.80;;;;;;5022137;28;20277;-76
2022/03/24 10:17:53;;;;;;;4.88;4.22;;;29.30;35.60;;;;;;5017483;28;20187;-76
2022/03/24 10:20:20;;;;;;;7.55;4.30;;;29.90;35.10;;;;;;5023593;28;20685;-76
2022/03/24 10:23:00;;;;;;;4.28;3.97;;;30.50;35.00;;;;;;5009628;28;20185;-76
2022/03/24 10:25:30;;;;;;;6.90;5.00;;;31.20;34.60;;;;;;5012674;28;20733;-75
2022/03/24 10:28:14;;;;;;;4.40;4.13;;;31.70;31.90;;;;;;5013993;28;20235;-75
2022/03/24 10:30:58;;;;;;;8.55;4.57;;;31.00;31.20;;;;;;5015135;28;20701;-75
2022/03/24 10:33:32;;;;;;;4.30;4.10;;;30.50;32.00;;;;;;5015922;28;20650;-76
2022/03/24 10:36:08;;;;;;;5.05;4.57;;;30.60;34.80;;;;;;5008998;28;20650;-75
2022/03/24 10:38:39;;;;;;;9.05;4.15;;;30.70;33.90;;;;;;5018421;28;20188;-77
2022/03/24 10:41:20;;;;;;;4.95;4.60;;;31.00;32.50;;;;;;5014766;28;20185;-74
2022/03/24 10:43:52;;;;;;;5.30;4.82;;;30.90;31.70;;;;;;5016254;28;20196;-75
2022/03/24 10:46:18;;;;;;;4.68;4.30;;;31.00;32.50;;;;;;5020372;28;20184;-75
2022/03/24 10:48:47;;;;;;;4.97;4.53;;;31.20;32.80;;;;;;5018978;28;20189;-75
2022/03/24 10:51:26;;;;;;;4.55;4.30;;;31.40;32.40;;;;;;5017536;28;20288;-76
2022/03/24 10:53:54;;;;;;;4.43;4.03;;;31.10;31.80;;;;;;5011748;28;20577;-75
2022/03/24 10:56:29;;;;;;;4.70;4.30;;;30.50;32.40;;;;;;5019354;28;20179;-76
2022/03/24 10:58:59;;;;;;;10.68;4.50;;;29.90;33.00;;;;;;5015640;28;20187;-76
2022/03/24 11:01:28;;;;;;;4.35;4.05;;;29.60;33.10;;;;;;5016496;28;20220;-76
2022/03/24 11:03:55;;;;;;;4.25;3.95;;;29.60;33.60;;;;;;5016276;28;20275;-76
2022/03/24 11:06:27;;;;;;;4.18;3.97;;;30.00;33.70;;;;;;5015262;28;20193;-76
2022/03/24 11:08:59;;;;;;;5.75;3.75;;;30.40;31.50;;;;;;5014807;28;20181;-76
2022/03/24 11:11:26;;;;;;;5.93;4.55;;;30.10;32.30;;;;;;5014581;28;20172;-76
2022/03/24 11:13:53;;;;;;;3.97;3.75;;;29.80;31.90;;;;;;5015901;28;20582;-76
2022/03/24 11:16:22;;;;;;;4.68;4.43;;;29.70;32.10;;;;;;5014743;28;20174;-76
2022/03/24 11:18:49;;;;;;;5.20;4.65;;;30.00;31.90;;;;;;5027086;28;20199;-76
2022/03/24 11:21:50;;;;;;;7.55;4.85;;;29.60;31.60;;;;;;5013352;28;20187;-76
2022/03/24 11:24:16;;;;;;;4.78;4.38;;;29.20;31.80;;;;;;5016991;28;20254;-76
2022/03/24 11:26:43;;;;;;;4.53;4.30;;;28.50;31.90;;;;;;5013929;28;20536;-76
2022/03/24 11:29:10;;;;;;;4.95;4.63;;;28.20;32.10;;;;;;5013327;28;20579;-75
2022/03/24 11:31:37;;;;;;;4.70;4.30;;;27.40;32.70;;;;;;4993394;28;20173;-74
2022/03/24 11:34:04;;;;;;;5.35;4.45;;;26.90;32.90;;;;;;5008988;28;20220;-75
2022/03/24 11:36:31;;;;;;;4.07;3.78;;;26.90;34.00;;;;;;5000344;28;20248;-75
2022/03/24 11:39:02;;;;;;;5.53;4.18;;;27.30;33.90;;;;;;5002935;28;20199;-75
2022/03/24 11:41:37;;;;;;;5.47;3.90;;;27.60;33.60;;;;;;4993163;28;20197;-75
2022/03/24 11:44:34;;;;;;;4.15;3.78;;;28.10;32.50;;;;;;5009466;28;20192;-75
2022/03/24 11:47:11;;;;;;;4.85;4.45;;;27.60;32.10;;;;;;4923731;29;20250;-75
2022/03/24 11:49:37;;;;;;;3.90;3.63;;;27.30;33.10;;;;;;4908428;29;20200;-75
2022/03/24 11:52:03;;;;;;;5.65;3.92;;;27.20;32.70;;;;;;4924199;29;20191;-74
2022/03/24 11:54:34;;;;;;;4.55;4.15;;;27.30;33.70;;;;;;4924056;29;20279;-76
2022/03/24 11:57:22;;;;;;;4.22;3.92;;;27.80;33.30;;;;;;4924348;29;20280;-76
2022/03/24 12:00:10;;;;;;;4.25;3.95;;;28.40;32.60;;;;;;4923971;29;20660;-76
2022/03/24 12:02:36;;;;;;;3.78;3.55;;;28.90;32.60;;;;;;4932996;29;20222;-75
2022/03/24 12:05:03;;;;;;;3.97;3.78;;;29.30;32.60;;;;;;4934514;29;20191;-75
2022/03/24 12:07:30;;;;;;;5.25;3.90;;;29.10;31.30;;;;;;4936442;29;20747;-75
2022/03/24 12:09:56;;;;;;;4.47;4.15;;;28.60;31.70;;;;;;4935411;29;20340;-75
2022/03/24 12:12:21;;;;;;;4.15;3.88;;;28.00;32.40;;;;;;4937666;28;20641;-75
2022/03/24 12:14:48;;;;;;;4.13;3.92;;;28.10;33.00;;;;;;4932752;29;20187;-75
2022/03/24 12:17:31;;;;;;;3.97;3.67;;;28.40;31.90;;;;;;4937033;29;20253;-75
2022/03/24 12:20:00;;;;;;;4.55;4.18;;;28.10;32.30;;;;;;4936245;29;20195;-74
2022/03/24 12:22:26;;;;;;;3.92;3.75;;;28.30;33.00;;;;;;4937759;29;20290;-76
2022/03/24 12:25:12;;;;;;;5.30;3.80;;;28.50;32.70;;;;;;5009078;28;20636;-76
2022/03/24 12:28:01;;;;;;;6.97;4.15;;;29.00;32.30;;;;;;5007933;28;20227;-75
2022/03/24 12:30:39;;;;;;;4.43;4.03;;;29.60;31.30;;;;;;5012478;28;20581;-74
2022/03/24 12:33:08;;;;;;;5.13;3.80;;;30.20;31.50;;;;;;5010596;28;20674;-75
2022/03/24 12:35:53;;;;;;;7.03;4.07;;;30.70;30.90;;;;;;5016697;28;20188;-75
2022/03/24 12:38:21;;;;;;;3.42;3.13;;;31.10;30.70;;;;;;5015990;28;20192;-76
2022/03/24 12:41:06;;;;;;;6.40;3.47;;;31.00;31.10;;;;;;5013269;28;20800;-75
2022/03/24 12:43:54;;;;;;;5.10;3.58;;;30.50;30.50;;;;;;5008044;28;20196;-76
2022/03/24 12:46:34;;;;;;;4.28;3.80;;;30.00;30.30;;;;;;5014797;28;20188;-75
2022/03/24 12:49:26;;;;;;;3.42;3.00;;;29.30;30.60;;;;;;5012358;28;20309;-75
2022/03/24 12:51:57;;;;;;;4.53;4.22;;;28.80;31.40;;;;;;5017836;28;20575;-74